Terminal Aerodrome Forecast
Issued by NWS

Home | Current Version | Previous Version | Text Only | Print | Product List | Glossary Off
Versions: 1 2 3 4 5 6 7 8 9 10 11 12 13 14 15 16 17 18 19 20 21 22 23

000
FTUS43 KDLH 241700
TAFHIB
TAF
KHIB 241732Z 2418/2518 22009G15KT P6SM SCT150
     FM242300 24008KT P6SM SCT100
     FM250400 30010KT P6SM SCT150
      TEMPO 2504/2507 30013G24KT
     FM251700 30012G20KT P6SM SKC=

USA.gov is the U.S. government's official web portal to all federal, state and local government web resources and services.